Time;durP1;ratioP1;P1;durP2;ratioP2;P2;SDS_P1;SDS_P2;PMS_P1;PMS_P2;Temp;Humidity;BMP_temperature;BMP_pressure;BME280_temperature;BME280_humidity;BME280_pressure;Samples;Min_cycle;Max_cycle;Signal;HPM_P1;HPM_P2
2023/03/25 00:00:43;;;;;;;;;;;9.30;1.00;;;;;;5095020;28;19973;-74
2023/03/25 00:03:09;;;;;;;;;;;9.10;1.00;;;;;;5076964;28;19908;-74
2023/03/25 00:05:40;;;;;;;;;;;9.00;1.00;;;;;;5108867;28;19961;-78
2023/03/25 00:08:09;;;;;;;;;;;8.90;1.00;;;;;;5115120;28;19911;-78
2023/03/25 00:10:39;;;;;;;;;;;8.80;1.00;;;;;;5114816;28;19918;-78
2023/03/25 00:13:12;;;;;;;;;;;8.70;1.00;;;;;;5114886;28;19916;-78
2023/03/25 00:15:46;;;;;;;;;;;8.60;1.00;;;;;;5115089;28;19947;-78
2023/03/25 00:18:19;;;;;;;;;;;8.60;1.00;;;;;;5108391;28;19911;-79
2023/03/25 00:20:48;;;;;;;;;;;8.50;1.00;;;;;;5115115;28;19911;-78
2023/03/25 00:23:17;;;;;;;;;;;8.40;1.00;;;;;;5113201;28;19920;-78
2023/03/25 00:25:46;;;;;;;;;;;8.40;1.00;;;;;;5097563;28;19942;-78
2023/03/25 00:28:33;;;;;;;;;;;8.40;1.00;;;;;;5113671;28;19912;-78
2023/03/25 00:31:15;;;;;;;;;;;8.30;1.00;;;;;;5115093;28;19919;-78
2023/03/25 00:33:45;;;;;;;;;;;8.30;1.00;;;;;;5094747;28;19922;-78
2023/03/25 00:36:16;;;;;;;;;;;8.30;1.00;;;;;;5110122;28;19912;-75
2023/03/25 00:38:51;;;;;;;;;;;8.40;1.00;;;;;;5114193;28;19908;-75
2023/03/25 00:41:21;;;;;;;;;;;8.40;1.00;;;;;;5098792;28;20007;-74
2023/03/25 00:43:47;;;;;;;;;;;8.40;1.00;;;;;;5076559;28;19912;-75
2023/03/25 00:46:13;;;;;;;;;;;8.40;1.00;;;;;;5094311;28;19931;-75
2023/03/25 00:48:45;;;;;;;;;;;8.40;1.00;;;;;;5094199;28;20403;-75
2023/03/25 00:51:13;;;;;;;;;;;8.40;1.00;;;;;;5094691;28;19908;-78
2023/03/25 00:54:10;;;;;;;;;;;8.40;1.00;;;;;;5094418;28;19916;-78
2023/03/25 00:56:52;;;;;;;;;;;8.40;1.00;;;;;;5094100;28;19931;-78
2023/03/25 00:59:39;;;;;;;;;;;8.50;1.00;;;;;;5094152;28;19916;-78
2023/03/25 01:02:10;;;;;;;;;;;8.40;1.00;;;;;;5094211;28;19974;-78
2023/03/25 01:04:38;;;;;;;;;;;8.40;1.00;;;;;;5094826;28;20267;-75
2023/03/25 01:07:16;;;;;;;;;;;8.40;1.00;;;;;;5094336;28;19965;-75
2023/03/25 01:09:45;;;;;;;;;;;8.40;1.00;;;;;;5094094;28;19912;-74
2023/03/25 01:12:10;;;;;;;;;;;8.40;1.00;;;;;;5113792;28;20319;-75
2023/03/25 01:14:36;;;;;;;;;;;8.40;1.00;;;;;;5114575;28;20006;-75
2023/03/25 01:17:02;;;;;;;;;;;8.40;1.00;;;;;;5103806;28;19957;-75
2023/03/25 01:22:33;;;;;;;;;;;8.50;1.00;;;;;;5114145;28;19957;-78
2023/03/25 01:25:03;;;;;;;;;;;8.50;1.00;;;;;;5114520;28;19907;-78
2023/03/25 01:27:33;;;;;;;;;;;8.50;1.00;;;;;;5114082;28;19907;-78
2023/03/25 01:29:59;;;;;;;;;;;8.50;1.00;;;;;;5094305;28;19916;-78
2023/03/25 01:32:25;;;;;;;;;;;8.50;1.00;;;;;;5094382;28;19919;-78
2023/03/25 01:34:50;;;;;;;;;;;8.50;1.00;;;;;;5076109;28;19923;-75
2023/03/25 01:37:17;;;;;;;;;;;8.40;1.00;;;;;;5093775;28;19914;-75
2023/03/25 01:39:45;;;;;;;;;;;8.40;1.00;;;;;;5110628;28;20363;-74
2023/03/25 01:42:11;;;;;;;;;;;8.40;1.00;;;;;;5114362;28;20432;-75
2023/03/25 01:44:39;;;;;;;;;;;8.40;1.00;;;;;;5114053;28;19911;-75
2023/03/25 01:47:07;;;;;;;;;;;8.40;1.00;;;;;;5116130;28;19916;-75
2023/03/25 01:49:37;;;;;;;;;;;8.40;1.00;;;;;;5116065;28;20375;-75
2023/03/25 01:52:07;;;;;;;;;;;8.40;1.00;;;;;;5097686;28;20007;-75
2023/03/25 01:54:32;;;;;;;;;;;8.40;1.00;;;;;;5097380;28;19963;-75
2023/03/25 01:57:18;;;;;;;;;;;8.50;1.00;;;;;;5079192;28;19962;-75
2023/03/25 01:59:44;;;;;;;;;;;8.70;1.00;;;;;;5113129;28;19908;-75
2023/03/25 02:02:14;;;;;;;;;;;8.70;1.00;;;;;;5099621;28;19939;-75
2023/03/25 02:04:59;;;;;;;;;;;8.70;1.00;;;;;;5117179;28;19942;-76
2023/03/25 02:07:29;;;;;;;;;;;8.80;1.00;;;;;;5117690;28;19915;-78
2023/03/25 02:10:10;;;;;;;;;;;8.80;1.00;;;;;;5115689;28;20308;-78
2023/03/25 02:12:57;;;;;;;;;;;8.90;1.00;;;;;;5097184;28;19908;-78
2023/03/25 02:15:23;;;;;;;;;;;8.90;1.00;;;;;;5097217;28;20146;-78
2023/03/25 02:17:57;;;;;;;;;;;9.00;1.00;;;;;;5097059;28;19909;-78
2023/03/25 02:20:36;;;;;;;;;;;9.10;1.00;;;;;;5097397;28;20370;-76
2023/03/25 02:23:21;;;;;;;;;;;9.10;1.00;;;;;;5096808;28;19909;-75
2023/03/25 02:25:56;;;;;;;;;;;9.20;1.00;;;;;;5078620;28;19908;-75
2023/03/25 02:28:51;;;;;;;;;;;9.20;1.00;;;;;;5096873;28;19912;-75
2023/03/25 02:31:33;;;;;;;;;;;9.20;1.00;;;;;;5108403;28;19918;-75
2023/03/25 02:34:21;;;;;;;;;;;9.20;1.00;;;;;;5117264;28;20359;-75
2023/03/25 02:37:00;;;;;;;;;;;9.20;1.00;;;;;;5117288;28;20386;-75
2023/03/25 02:39:51;;;;;;;;;;;9.10;1.00;;;;;;5102824;28;20367;-75
2023/03/25 02:42:21;;;;;;;;;;;9.10;1.00;;;;;;5098372;28;19912;-75
2023/03/25 02:44:55;;;;;;;;;;;9.00;1.00;;;;;;5108581;28;20263;-75
2023/03/25 02:47:23;;;;;;;;;;;9.00;1.00;;;;;;5096346;28;20409;-75
2023/03/25 02:50:09;;;;;;;;;;;9.00;1.00;;;;;;5096265;28;20432;-75
2023/03/25 02:52:41;;;;;;;;;;;9.00;1.00;;;;;;5101317;28;19919;-75
2023/03/25 02:55:09;;;;;;;;;;;9.00;1.00;;;;;;5116688;28;19923;-75
2023/03/25 02:57:37;;;;;;;;;;;9.00;1.00;;;;;;5116845;28;19930;-75
2023/03/25 03:00:14;;;;;;;;;;;9.00;1.00;;;;;;5095370;28;19987;-75
2023/03/25 03:03:02;;;;;;;;;;;9.10;1.00;;;;;;5079785;28;19927;-75
2023/03/25 03:05:32;;;;;;;;;;;9.10;1.00;;;;;;5096340;28;19908;-78
2023/03/25 03:08:03;;;;;;;;;;;9.10;1.00;;;;;;5096153;28;19908;-78
2023/03/25 03:10:57;;;;;;;;;;;9.00;1.00;;;;;;5077643;28;19908;-78
2023/03/25 03:13:37;;;;;;;;;;;9.00;1.00;;;;;;5096005;28;19963;-78
2023/03/25 03:16:04;;;;;;;;;;;9.00;1.00;;;;;;5095786;28;19915;-78
2023/03/25 03:18:51;;;;;;;;;;;8.90;1.00;;;;;;5095673;28;20011;-78
2023/03/25 03:21:39;;;;;;;;;;;8.90;1.00;;;;;;5096300;28;19954;-78
2023/03/25 03:24:21;;;;;;;;;;;8.90;1.00;;;;;;5096054;28;20317;-78
2023/03/25 03:26:54;;;;;;;;;;;9.00;1.00;;;;;;5095814;28;19912;-78
2023/03/25 03:29:40;;;;;;;;;;;9.10;1.00;;;;;;5095033;28;19915;-78
2023/03/25 03:32:27;;;;;;;;;;;9.00;1.00;;;;;;5073190;28;20382;-78
2023/03/25 03:35:00;;;;;;;;;;;9.00;1.00;;;;;;5056552;28;19916;-78
2023/03/25 03:37:36;;;;;;;;;;;9.00;1.00;;;;;;5073637;28;19909;-75
2023/03/25 03:40:06;;;;;;;;;;;9.00;1.00;;;;;;5071568;28;19935;-75
2023/03/25 03:42:41;;;;;;;;;;;9.00;1.00;;;;;;5053406;28;20015;-75
2023/03/25 03:45:09;;;;;;;;;;;9.00;1.00;;;;;;5052946;28;19938;-75
2023/03/25 03:47:47;;;;;;;;;;;9.10;1.00;;;;;;5058145;28;19915;-75
2023/03/25 03:50:15;;;;;;;;;;;9.00;1.00;;;;;;5055397;28;20268;-75
2023/03/25 03:52:51;;;;;;;;;;;9.10;1.00;;;;;;5056265;28;19915;-75
2023/03/25 03:55:21;;;;;;;;;;;9.10;1.00;;;;;;5072772;28;19916;-75
2023/03/25 03:57:51;;;;;;;;;;;9.00;1.00;;;;;;5073001;28;19909;-75
2023/03/25 04:00:18;;;;;;;;;;;8.90;1.00;;;;;;5069542;28;20407;-75
2023/03/25 04:03:03;;;;;;;;;;;9.00;1.00;;;;;;5052721;28;19909;-75
2023/03/25 04:05:31;;;;;;;;;;;9.00;1.00;;;;;;5067312;28;19923;-75
2023/03/25 04:08:15;;;;;;;;;;;9.00;1.00;;;;;;5062392;28;19909;-78
2023/03/25 04:11:14;;;;;;;;;;;8.80;1.00;;;;;;5093883;28;19999;-79
2023/03/25 04:13:41;;;;;;;;;;;8.80;1.00;;;;;;5032642;28;20287;-78
2023/03/25 04:16:09;;;;;;;;;;;8.80;1.00;;;;;;5032866;28;20380;-78
2023/03/25 04:18:42;;;;;;;;;;;8.80;1.00;;;;;;5032771;28;19909;-78
2023/03/25 04:21:08;;;;;;;;;;;8.80;1.00;;;;;;5032910;28;19910;-75
2023/03/25 04:23:36;;;;;;;;;;;8.70;1.00;;;;;;5032579;28;19931;-75
2023/03/25 04:26:02;;;;;;;;;;;8.60;1.00;;;;;;5032354;28;19936;-75
2023/03/25 04:28:35;;;;;;;;;;;8.60;1.00;;;;;;5032611;28;19909;-74
2023/03/25 04:31:05;;;;;;;;;;;8.60;1.00;;;;;;5034899;28;19913;-75
2023/03/25 04:33:30;;;;;;;;;;;8.60;1.00;;;;;;5032451;28;19924;-75
2023/03/25 04:36:00;;;;;;;;;;;8.60;1.00;;;;;;5032251;28;19909;-75
2023/03/25 04:41:30;;;;;;;;;;;8.70;1.00;;;;;;5041470;28;19924;-78
2023/03/25 04:43:57;;;;;;;;;;;8.60;1.00;;;;;;5045324;28;19955;-78
2023/03/25 04:46:35;;;;;;;;;;;8.70;1.00;;;;;;5052297;28;19909;-78
2023/03/25 04:49:27;;;;;;;;;;;8.70;1.00;;;;;;5069719;28;20316;-78
2023/03/25 04:51:54;;;;;;;;;;;8.60;1.00;;;;;;5094664;28;19912;-75
2023/03/25 04:54:20;;;;;;;;;;;8.70;1.00;;;;;;5075876;28;20271;-75
2023/03/25 04:56:46;;;;;;;;;;;8.70;1.00;;;;;;5094244;28;19916;-75
2023/03/25 04:59:12;;;;;;;;;;;8.70;1.00;;;;;;5094479;28;19926;-75
2023/03/25 05:01:40;;;;;;;;;;;8.70;1.00;;;;;;5094707;28;19912;-74
2023/03/25 05:04:07;;;;;;;;;;;8.70;1.00;;;;;;5094082;28;19908;-75
2023/03/25 05:06:34;;;;;;;;;;;8.70;1.00;;;;;;5094676;28;19919;-75
2023/03/25 05:09:11;;;;;;;;;;;8.70;1.00;;;;;;5075852;28;19908;-75
2023/03/25 05:11:38;;;;;;;;;;;8.80;1.00;;;;;;5075842;28;19912;-75
2023/03/25 05:14:04;;;;;;;;;;;8.70;1.00;;;;;;5093902;28;19912;-75
2023/03/25 05:16:34;;;;;;;;;;;8.80;1.00;;;;;;5101673;28;20442;-75
2023/03/25 05:19:02;;;;;;;;;;;8.70;1.00;;;;;;5094735;28;19918;-75
2023/03/25 05:21:37;;;;;;;;;;;8.80;1.00;;;;;;5096102;28;20283;-77
2023/03/25 05:24:07;;;;;;;;;;;11.10;1.00;;;;;;5099472;28;20417;-79
2023/03/25 05:26:34;;;;;;;;;;;8.70;1.00;;;;;;5097789;28;19912;-76
2023/03/25 05:29:00;;;;;;;;;;;8.70;1.00;;;;;;5107547;28;20375;-77
2023/03/25 05:31:28;;;;;;;;;;;8.80;1.00;;;;;;5118483;28;19912;-76
2023/03/25 05:34:05;;;;;;;;;;;8.80;1.00;;;;;;5118025;28;19916;-76
2023/03/25 05:36:34;;;;;;;;;;;8.80;1.00;;;;;;5118198;28;20286;-78
2023/03/25 05:45:05;;;;;;;;;;;8.70;1.00;;;;;;5098077;28;19942;-89
2023/03/25 05:47:46;;;;;;;;;;;8.60;1.00;;;;;;5080342;28;19908;-89
2023/03/25 05:50:36;;;;;;;;;;;8.60;1.00;;;;;;5116862;28;20387;-88
2023/03/25 05:53:02;;;;;;;;;;;8.70;1.00;;;;;;5100740;28;19915;-88
2023/03/25 05:55:28;;;;;;;;;;;8.50;1.00;;;;;;5100140;28;19951;-88
2023/03/25 06:00:58;;;;;;;;;;;8.70;1.00;;;;;;5110281;28;19919;-88
2023/03/25 06:06:24;;;;;;;;;;;8.60;1.00;;;;;;5098245;28;19958;-88
2023/03/25 06:11:53;;;;;;;;;;;8.60;1.00;;;;;;5107706;28;19919;-88
2023/03/25 06:17:37;;;;;;;;;;;8.70;1.00;;;;;;5105236;28;19915;-89
2023/03/25 06:23:10;;;;;;;;;;;8.70;1.00;;;;;;5097370;28;19916;-81
2023/03/25 06:25:40;;;;;;;;;;;8.70;1.00;;;;;;5078839;28;19908;-81
2023/03/25 06:28:17;;;;;;;;;;;8.90;1.00;;;;;;5110342;28;20290;-81
2023/03/25 06:30:52;;;;;;;;;;;9.00;1.00;;;;;;5098991;28;19912;-81
2023/03/25 06:33:21;;;;;;;;;;;9.10;1.00;;;;;;5116190;28;20031;-81
2023/03/25 06:35:58;;;;;;;;;;;9.20;1.00;;;;;;5117239;28;19908;-81
2023/03/25 06:38:46;;;;;;;;;;;9.30;1.00;;;;;;5103722;28;20363;-89
2023/03/25 06:44:22;;;;;;;;;;;9.40;1.00;;;;;;5106395;28;19919;-85
2023/03/25 06:47:09;;;;;;;;;;;9.50;1.00;;;;;;5078609;28;20021;-84
2023/03/25 06:49:57;;;;;;;;;;;9.60;1.00;;;;;;5093578;28;19915;-84
2023/03/25 06:52:27;;;;;;;;;;;9.60;1.00;;;;;;5099166;28;19953;-84
2023/03/25 06:55:04;;;;;;;;;;;9.80;1.00;;;;;;5113841;28;19919;-83
2023/03/25 06:57:34;;;;;;;;;;;9.80;1.00;;;;;;5114630;28;19916;-83
2023/03/25 07:00:22;;;;;;;;;;;9.70;1.00;;;;;;5096349;28;19908;-83
2023/03/25 07:05:50;;;;;;;;;;;9.80;1.00;;;;;;5096127;28;19915;-77
2023/03/25 07:08:16;;;;;;;;;;;9.80;1.00;;;;;;5104803;28;19912;-76
2023/03/25 07:11:03;;;;;;;;;;;9.80;1.00;;;;;;5116572;28;19950;-76
2023/03/25 07:13:39;;;;;;;;;;;9.70;1.00;;;;;;5116104;28;19915;-76
2023/03/25 07:16:16;;;;;;;;;;;9.60;1.00;;;;;;5116562;28;19907;-76
2023/03/25 07:18:41;;;;;;;;;;;9.60;1.00;;;;;;5116215;28;19914;-76
2023/03/25 07:21:22;;;;;;;;;;;9.60;1.00;;;;;;5113341;28;20282;-76
2023/03/25 07:23:47;;;;;;;;;;;9.60;1.00;;;;;;5096128;28;19915;-78
2023/03/25 07:26:13;;;;;;;;;;;9.60;1.00;;;;;;5095698;28;19908;-78
2023/03/25 07:28:52;;;;;;;;;;;9.60;1.00;;;;;;5096014;28;20344;-79
2023/03/25 07:31:17;;;;;;;;;;;9.80;1.00;;;;;;5108336;28;20350;-79
2023/03/25 07:34:15;;;;;;;;;;;10.00;1.00;;;;;;5106622;28;19920;-79
2023/03/25 07:36:46;;;;;;;;;;;10.00;1.00;;;;;;5077263;28;19943;-79
2023/03/25 07:39:11;;;;;;;;;;;10.30;1.00;;;;;;5107873;28;19912;-76
2023/03/25 07:41:41;;;;;;;;;;;10.50;1.00;;;;;;5115993;28;19908;-76
2023/03/25 07:44:22;;;;;;;;;;;10.50;1.00;;;;;;5115539;28;19908;-76
2023/03/25 07:46:58;;;;;;;;;;;10.60;1.00;;;;;;5115568;28;19957;-76
2023/03/25 07:49:27;;;;;;;;;;;10.60;1.00;;;;;;5116024;28;19908;-80
2023/03/25 07:52:27;;;;;;;;;;;10.60;1.00;;;;;;5115570;28;19911;-80
2023/03/25 07:54:53;;;;;;;;;;;10.70;1.00;;;;;;5095533;28;20011;-75
2023/03/25 07:57:19;;;;;;;;;;;10.70;1.00;;;;;;5095032;28;19959;-76
2023/03/25 07:59:44;;;;;;;;;;;10.70;1.00;;;;;;5095303;28;19947;-72
2023/03/25 08:02:16;;;;;;;;;;;10.70;1.00;;;;;;5094922;28;20295;-72
2023/03/25 08:04:41;;;;;;;;;;;10.90;1.00;;;;;;5109355;28;20320;-73
2023/03/25 08:07:07;;;;;;;;;;;11.00;1.00;;;;;;5115310;28;19953;-73
2023/03/25 08:09:32;;;;;;;;;;;11.30;1.00;;;;;;5115545;28;19934;-72
2023/03/25 08:11:58;;;;;;;;;;;11.50;1.00;;;;;;5114543;28;19927;-73
2023/03/25 08:14:24;;;;;;;;;;;11.50;1.00;;;;;;5102296;28;19916;-72
2023/03/25 08:16:49;;;;;;;;;;;11.60;1.00;;;;;;5094983;28;19908;-73
2023/03/25 08:19:15;;;;;;;;;;;11.80;1.00;;;;;;5076575;28;19909;-72
2023/03/25 08:21:40;;;;;;;;;;;11.90;1.00;;;;;;5094917;28;19908;-73
2023/03/25 08:24:10;;;;;;;;;;;11.90;1.00;;;;;;5095036;28;19919;-73
2023/03/25 08:26:36;;;;;;;;;;;12.00;1.00;;;;;;5094549;28;19915;-73
2023/03/25 08:29:04;;;;;;;;;;;12.00;1.00;;;;;;5094521;28;19961;-72
2023/03/25 08:31:30;;;;;;;;;;;12.00;1.00;;;;;;5094703;28;20312;-73
2023/03/25 08:33:56;;;;;;;;;;;12.10;1.00;;;;;;5103212;28;19973;-73
2023/03/25 08:36:22;;;;;;;;;;;12.10;1.00;;;;;;5113243;28;20277;-73
2023/03/25 08:38:52;;;;;;;;;;;12.10;1.00;;;;;;5110165;28;19995;-79
2023/03/25 08:41:18;;;;;;;;;;;11.90;1.00;;;;;;5114802;28;19908;-79
2023/03/25 08:43:43;;;;;;;;;;;11.90;1.00;;;;;;5114815;28;20344;-79
2023/03/25 08:46:09;;;;;;;;;;;11.90;1.00;;;;;;5115013;28;19957;-79
2023/03/25 08:48:47;;;;;;;;;;;12.00;1.00;;;;;;5114963;28;19907;-79
2023/03/25 08:51:16;;;;;;;;;;;12.00;1.00;;;;;;5114685;28;19943;-79
2023/03/25 08:53:41;;;;;;;;;;;12.20;1.00;;;;;;5105870;28;19912;-73
2023/03/25 08:56:08;;;;;;;;;;;12.30;1.00;;;;;;5097437;28;20355;-72
2023/03/25 08:58:34;;;;;;;;;;;12.30;1.00;;;;;;5103096;28;19955;-73
2023/03/25 09:01:00;;;;;;;;;;;12.40;1.00;;;;;;5094352;28;19923;-73
2023/03/25 09:03:26;;;;;;;;;;;12.50;1.00;;;;;;5100368;28;19912;-73
2023/03/25 09:05:52;;;;;;;;;;;12.60;1.00;;;;;;5114710;28;19907;-73
2023/03/25 09:08:17;;;;;;;;;;;12.50;1.00;;;;;;5109557;28;20379;-72
2023/03/25 09:10:43;;;;;;;;;;;12.50;1.00;;;;;;5076285;28;19909;-73
2023/03/25 09:13:08;;;;;;;;;;;12.70;1.00;;;;;;5094605;28;20018;-73
2023/03/25 09:15:34;;;;;;;;;;;12.50;1.00;;;;;;5090751;28;19919;-73
2023/03/25 09:18:00;;;;;;;;;;;12.50;1.00;;;;;;5112366;28;20286;-73
2023/03/25 09:20:26;;;;;;;;;;;12.60;1.00;;;;;;5084926;28;19908;-72
2023/03/25 09:22:51;;;;;;;;;;;12.50;1.00;;;;;;5112826;28;20367;-73
2023/03/25 09:25:17;;;;;;;;;;;12.50;1.00;;;;;;5103131;28;19923;-73
2023/03/25 09:27:46;;;;;;;;;;;12.40;1.00;;;;;;5096079;28;19969;-72
2023/03/25 09:30:11;;;;;;;;;;;12.40;1.00;;;;;;5102662;28;19919;-73
2023/03/25 09:32:37;;;;;;;;;;;12.50;1.00;;;;;;5088599;28;19911;-72
2023/03/25 09:35:03;;;;;;;;;;;12.50;1.00;;;;;;5111838;28;19963;-72
2023/03/25 09:37:34;;;;;;;;;;;12.50;1.00;;;;;;5113246;28;19931;-73
2023/03/25 09:39:59;;;;;;;;;;;12.70;1.00;;;;;;5112166;28;19941;-79
2023/03/25 09:42:25;;;;;;;;;;;12.80;1.00;;;;;;5093758;28;20388;-79
2023/03/25 09:45:05;;;;;;;;;;;13.10;1.00;;;;;;5093661;28;19995;-79
2023/03/25 09:47:51;;;;;;;;;;;13.30;1.00;;;;;;5093492;28;19939;-79
2023/03/25 09:50:17;;;;;;;;;;;13.40;1.00;;;;;;5112414;28;19912;-79
2023/03/25 09:55:52;;;;;;;;;;;13.10;1.00;;;;;;5113903;28;19915;-79
2023/03/25 09:58:34;;;;;;;;;;;12.80;1.00;;;;;;5103572;28;19916;-79
2023/03/25 10:01:36;;;;;;;;;;;12.20;1.00;;;;;;5094025;28;19986;-78
2023/03/25 10:04:22;;;;;;;;;;;11.30;1.00;;;;;;5043991;28;19919;-78
2023/03/25 10:06:53;;;;;;;;;;;10.40;1.00;;;;;;5063815;28;19920;-79
2023/03/25 10:09:22;;;;;;;;;;;10.00;1.00;;;;;;5053351;28;19908;-74
2023/03/25 10:11:58;;;;;;;;;;;9.90;1.00;;;;;;5053895;28;20272;-74
2023/03/25 10:14:26;;;;;;;;;;;9.80;1.00;;;;;;5054359;28;19932;-74
2023/03/25 10:17:02;;;;;;;;;;;9.70;1.00;;;;;;5054974;28;19916;-72
2023/03/25 10:19:49;;;;;;;;;;;9.70;1.00;;;;;;5055136;28;19915;-72
2023/03/25 10:22:22;;;;;;;;;;;9.80;1.00;;;;;;5034875;28;19952;-70
2023/03/25 10:25:08;;;;;;;;;;;10.00;1.00;;;;;;5051980;28;19913;-73
2023/03/25 10:27:41;;;;;;;;;;;10.00;1.00;;;;;;5037685;28;20352;-72
2023/03/25 10:30:12;;;;;;;;;;;9.90;1.00;;;;;;5054190;28;20348;-73
2023/03/25 10:32:43;;;;;;;;;;;9.70;1.00;;;;;;5034440;28;20052;-72
2023/03/25 10:35:32;;;;;;;;;;;9.70;1.00;;;;;;5034341;28;19924;-72
2023/03/25 10:38:06;;;;;;;;;;;9.70;1.00;;;;;;4998027;28;20389;-72
2023/03/25 10:40:43;;;;;;;;;;;9.80;1.00;;;;;;5015426;28;19952;-72
2023/03/25 10:43:09;;;;;;;;;;;10.10;1.00;;;;;;5014568;28;19913;-72
2023/03/25 10:45:34;;;;;;;;;;;10.30;1.00;;;;;;5027885;28;20292;-72
2023/03/25 10:48:08;;;;;;;;;;;10.50;1.00;;;;;;5034094;28;19964;-73
2023/03/25 10:50:34;;;;;;;;;;;10.70;1.00;;;;;;5031045;28;19913;-73
2023/03/25 10:53:00;;;;;;;;;;;10.90;1.00;;;;;;5019943;28;19913;-73
2023/03/25 10:55:31;;;;;;;;;;;11.30;1.00;;;;;;5034815;28;20349;-80
2023/03/25 10:57:57;;;;;;;;;;;11.30;1.00;;;;;;5034028;28;20284;-72
2023/03/25 11:00:25;;;;;;;;;;;11.10;1.00;;;;;;5033673;28;19909;-73
2023/03/25 11:02:50;;;;;;;;;;;11.20;1.00;;;;;;5025057;28;19913;-73
2023/03/25 11:05:18;;;;;;;;;;;11.30;1.00;;;;;;5014168;28;19948;-72
2023/03/25 11:07:53;;;;;;;;;;;11.30;1.00;;;;;;5014157;28;19948;-72
2023/03/25 11:10:34;;;;;;;;;;;11.50;1.00;;;;;;5014284;28;19933;-79
2023/03/25 11:13:28;;;;;;;;;;;11.70;1.00;;;;;;5013732;28;19972;-80
2023/03/25 11:16:00;;;;;;;;;;;11.80;1.00;;;;;;5087878;28;20356;-80
2023/03/25 11:18:52;;;;;;;;;;;12.10;1.00;;;;;;5107373;28;19918;-80
2023/03/25 11:21:22;;;;;;;;;;;12.10;1.00;;;;;;5095495;28;19919;-79
2023/03/25 11:23:52;;;;;;;;;;;12.20;1.00;;;;;;5095913;28;19908;-80
2023/03/25 11:26:24;;;;;;;;;;;12.30;1.00;;;;;;5096442;28;19933;-79
2023/03/25 11:28:52;;;;;;;;;;;12.40;1.00;;;;;;5095740;28;19919;-82
2023/03/25 11:31:23;;;;;;;;;;;12.50;1.00;;;;;;5101371;28;19919;-80
2023/03/25 11:34:11;;;;;;;3.78;1.10;;;12.70;1.00;;;;;;5099319;28;20467;-80
2023/03/25 11:37:05;;;;;;;3.00;1.00;;;12.80;1.00;;;;;;5101043;28;20162;-80
2023/03/25 11:40:12;;;;;;;2.47;1.00;;;13.00;1.00;;;;;;5115409;28;20461;-80
2023/03/25 11:42:39;;;;;;;2.40;0.60;;;13.10;1.00;;;;;;5109407;28;20379;-73
2023/03/25 11:45:05;;;;;;;3.63;0.90;;;13.20;1.00;;;;;;5095110;28;20371;-73
2023/03/25 11:47:37;;;;;;;5.83;1.03;;;13.30;1.00;;;;;;5099304;28;20391;-73
2023/03/25 11:50:04;;;;;;;5.77;1.30;;;13.50;1.00;;;;;;5113111;28;20390;-73
2023/03/25 11:52:41;;;;;;;10.53;0.90;;;13.60;1.00;;;;;;5113586;28;20420;-73
2023/03/25 11:55:35;;;;;;;1.70;0.80;;;13.50;1.00;;;;;;5095693;28;20497;-79
2023/03/25 11:58:03;;;;;;;5.27;1.20;;;13.60;1.00;;;;;;5084819;28;20922;-79
2023/03/25 12:00:37;;;;;;;1.20;0.80;;;13.60;1.00;;;;;;5094583;28;20439;-80
2023/03/25 12:03:14;;;;;;;2.03;0.70;;;13.70;1.00;;;;;;5094549;28;20760;-79
2023/03/25 12:06:00;;;;;;;4.53;1.00;;;13.90;1.00;;;;;;5076354;28;20767;-80
2023/03/25 12:08:58;;;;;;;3.33;0.80;;;14.30;1.00;;;;;;5094652;28;20412;-80
2023/03/25 12:11:37;;;;;;;2.33;0.80;;;14.10;1.00;;;;;;5095125;28;20384;-80
2023/03/25 12:14:34;;;;;;;3.93;0.90;;;14.00;1.00;;;;;;5094359;28;20855;-80
2023/03/25 12:17:24;;;;;;;1.27;0.80;;;14.00;1.00;;;;;;5076071;28;20393;-80
2023/03/25 12:20:12;;;;;;;8.33;0.80;;;14.00;1.00;;;;;;5094583;28;20391;-80
2023/03/25 12:23:17;;;;;;;3.23;1.00;;;14.00;1.00;;;;;;5094461;28;20377;-81
2023/03/25 12:26:12;;;;;;;1.60;0.67;;;14.10;1.00;;;;;;5094400;28;21199;-73
2023/03/25 12:28:52;;;;;;;4.37;1.00;;;14.10;1.00;;;;;;5091283;28;20465;-72
2023/03/25 12:31:54;;;;;;;2.47;0.63;;;14.10;1.00;;;;;;5112165;28;20429;-72
2023/03/25 12:34:48;;;;;;;1.00;0.63;;;14.40;1.00;;;;;;5108415;28;20450;-72
2023/03/25 12:37:19;;;;;;;2.23;0.87;;;14.40;1.00;;;;;;5114863;28;20380;-72
2023/03/25 12:39:53;;;;;;;1.53;0.60;;;14.60;1.00;;;;;;5105909;28;20438;-72
2023/03/25 12:42:49;;;;;;;1.70;0.70;;;14.60;1.00;;;;;;5114792;28;20423;-72
2023/03/25 12:45:47;;;;;;;5.43;1.37;;;14.60;1.00;;;;;;5103427;28;20407;-73
2023/03/25 12:48:41;;;;;;;0.90;0.70;;;14.70;1.00;;;;;;5012367;28;20398;-82
2023/03/25 12:54:57;;;;;;;2.87;0.80;;;14.80;1.00;;;;;;5012403;28;20860;-84
2023/03/25 12:57:49;;;;;;;2.23;0.73;;;15.00;1.00;;;;;;4995515;28;20415;-84
2023/03/25 13:00:48;;;;;;;1.88;0.63;;;14.90;1.00;;;;;;4932014;29;20409;-86
2023/03/25 13:03:50;;;;;;;2.20;0.80;;;14.90;1.00;;;;;;4924059;29;20168;-83
2023/03/25 13:06:59;;;;;;;1.73;0.60;;;14.90;1.00;;;;;;4841356;29;20407;-84
2023/03/25 13:09:32;;;;;;;2.67;1.00;;;14.70;1.00;;;;;;4840850;29;20977;-82
2023/03/25 13:12:22;;;;;;;3.60;0.70;;;14.60;1.00;;;;;;4826083;29;20435;-82
2023/03/25 13:15:34;;;;;;;1.50;0.63;;;14.50;1.00;;;;;;4825416;29;20906;-82
2023/03/25 13:18:22;;;;;;;2.20;0.80;;;14.50;1.00;;;;;;4822871;29;20574;-82
2023/03/25 13:24:41;;;;;;;7.33;2.70;;;14.40;1.00;;;;;;4875710;29;20517;-82
2023/03/25 13:27:41;;;;;;;2.80;0.80;;;14.20;1.00;;;;;;4909305;29;20423;-90
2023/03/25 13:30:22;;;;;;;7.07;2.20;;;14.00;1.00;;;;;;4910178;29;20433;-90
2023/03/25 13:32:51;;;;;;;2.47;1.07;;;14.20;1.00;;;;;;4881720;29;20400;-91
2023/03/25 13:38:52;;;;;;;1.10;0.60;;;14.10;1.00;;;;;;4993147;28;20371;-92
2023/03/25 13:41:41;;;;;;;1.43;0.80;;;14.10;1.00;;;;;;5005348;28;20385;-82
2023/03/25 13:44:27;;;;;;;1.07;0.60;;;14.20;1.00;;;;;;5064677;28;20473;-82
2023/03/25 13:47:30;;;;;;;3.33;1.20;;;14.30;1.00;;;;;;5111927;28;20418;-83
2023/03/25 13:50:16;;;;;;;2.87;0.90;;;14.10;1.00;;;;;;5117541;28;20386;-83
2023/03/25 13:53:34;;;;;;;2.60;1.03;;;14.00;1.00;;;;;;5105183;28;20386;-83
2023/03/25 13:56:08;;;;;;;0.87;0.60;;;13.90;1.00;;;;;;5097338;28;20961;-87
2023/03/25 14:05:51;;;;;;;2.40;0.70;;;14.60;1.00;;;;;;5096886;28;20849;-91
2023/03/25 14:12:10;;;;;;;2.70;0.80;;;14.90;1.00;;;;;;5117963;28;20491;-91
2023/03/25 14:15:24;;;;;;;4.03;0.90;;;15.20;1.00;;;;;;5099463;28;20417;-92
2023/03/25 14:21:26;;;;;;;5.07;0.80;;;15.40;1.00;;;;;;5015356;28;20450;-93
2023/03/25 14:24:28;;;;;;;3.72;0.90;;;15.30;1.00;;;;;;4998487;28;20498;-91
2023/03/25 14:27:33;;;;;;;8.80;1.20;;;15.10;1.00;;;;;;4946556;29;20202;-89
2023/03/25 14:30:34;;;;;;;2.20;0.80;;;15.00;1.00;;;;;;4899150;29;20391;-83
2023/03/25 14:33:11;;;;;;;2.93;0.70;;;15.00;1.00;;;;;;4827932;29;20446;-82
2023/03/25 14:35:47;;;;;;;4.53;0.87;;;15.00;1.00;;;;;;4861881;29;20390;-82
2023/03/25 14:38:52;;;;;;;1.27;0.70;;;14.90;1.00;;;;;;4861646;29;20470;-83
2023/03/25 14:41:58;;;;;;;1.20;0.50;;;15.00;1.00;;;;;;4861247;29;20432;-83
2023/03/25 14:51:18;;;;;;;3.00;0.80;;;14.90;1.00;;;;;;4862288;29;20438;-91
2023/03/25 14:57:13;;;;;;;2.80;0.90;;;15.00;1.00;;;;;;4937544;29;20904;-91
2023/03/25 15:00:28;;;;;;;2.50;0.80;;;15.00;1.00;;;;;;4937489;29;20374;-87
2023/03/25 15:06:13;;;;;;;;;;;15.20;1.00;;;;;;5034823;28;19978;-88
2023/03/25 15:09:16;;;;;;;;;;;15.20;1.00;;;;;;5066445;28;19947;-91
2023/03/25 15:14:49;;;;;;;1.17;0.80;;;15.10;1.00;;;;;;5096561;28;20282;-87
2023/03/25 15:17:52;;;;;;;2.70;0.90;;;15.10;1.00;;;;;;5096017;28;20158;-88
2023/03/25 15:20:46;;;;;;;1.63;0.73;;;15.40;1.00;;;;;;5077952;28;20454;-88
2023/03/25 15:26:42;;;;;;;4.60;0.80;;;16.30;1.00;;;;;;5114911;28;20493;-89
2023/03/25 15:33:16;;;;;;;2.33;0.70;;;16.80;1.00;;;;;;5115562;28;20420;-90
2023/03/25 15:36:09;;;;;;;1.80;0.93;;;17.50;1.00;;;;;;5090765;28;20439;-91
2023/03/25 15:49:22;;;;;;;5.03;1.23;;;19.20;1.00;;;;;;5107394;28;20473;-90
2023/03/25 15:52:16;;;;;;;3.20;0.80;;;18.70;1.00;;;;;;5097792;28;20453;-91
2023/03/25 16:01:30;;;;;;;2.60;0.93;;;17.10;1.00;;;;;;5096589;28;20410;-89
2023/03/25 16:04:30;;;;;;;3.20;1.00;;;16.70;1.00;;;;;;5097619;28;20414;-89
2023/03/25 16:10:26;;;;;;;2.57;1.00;;;17.30;1.00;;;;;;5107293;28;20400;-89
2023/03/25 16:16:16;;;;;;;4.17;1.20;;;18.40;1.00;;;;;;5097385;28;21005;-90
2023/03/25 16:25:47;;;;;;;3.63;0.70;;;16.10;1.00;;;;;;5094889;28;20523;-86
2023/03/25 16:28:38;;;;;;;3.50;1.00;;;16.10;1.00;;;;;;5077188;28;20418;-89
2023/03/25 16:31:40;;;;;;;3.08;0.93;;;16.50;1.00;;;;;;5075562;28;20499;-86
2023/03/25 16:34:14;;;;;;;3.23;0.80;;;16.50;1.00;;;;;;5076493;28;20225;-85
2023/03/25 16:36:46;;;;;;;1.90;0.60;;;16.90;1.00;;;;;;5076761;28;20926;-84
2023/03/25 16:42:36;;;;;;;3.20;0.80;;;16.70;1.00;;;;;;5095124;28;20235;-89
2023/03/25 16:45:16;;;;;;;1.33;0.60;;;16.60;1.00;;;;;;5082186;28;20513;-84
2023/03/25 16:47:53;;;;;;;1.07;0.60;;;16.20;1.00;;;;;;5092040;28;20449;-84
2023/03/25 16:53:41;;;;;;;0.80;0.70;;;16.50;1.00;;;;;;5094143;28;20547;-87
2023/03/25 16:56:15;;;;;;;1.93;0.73;;;15.90;1.00;;;;;;5094035;28;20397;-77
2023/03/25 16:59:06;;;;;;;4.07;0.97;;;15.50;1.00;;;;;;5094272;28;20459;-77
2023/03/25 17:01:37;;;;;;;2.67;1.00;;;15.10;1.00;;;;;;5095659;28;20384;-76
2023/03/25 17:04:18;;;;;;;9.93;1.10;;;14.90;1.00;;;;;;5113997;28;20466;-75